Time;durP1;ratioP1;P1;durP2;ratioP2;P2;SDS_P1;SDS_P2;PMS_P1;PMS_P2;Temp;Humidity;BMP_temperature;BMP_pressure;BME280_temperature;BME280_humidity;BME280_pressure;Samples;Min_cycle;Max_cycle;Signal;HPM_P1;HPM_P2
2022/05/19 00:02:00;;;;;;;6.50;3.97;;;;;;;8.04;100.00;100284.00;5111604;28;20204;-81
2022/05/19 00:04:28;;;;;;;6.43;4.00;;;;;;;8.02;100.00;100281.50;5111399;28;20676;-85
2022/05/19 00:06:55;;;;;;;6.00;3.77;;;;;;;8.07;100.00;100288.97;5111340;28;20204;-81
2022/05/19 00:09:23;;;;;;;5.50;3.70;;;;;;;8.08;100.00;100276.16;5111317;28;20235;-81
2022/05/19 00:11:50;;;;;;;6.50;3.80;;;;;;;8.10;100.00;100284.56;5111591;28;20205;-81
2022/05/19 00:14:17;;;;;;;6.17;4.03;;;;;;;8.05;100.00;100286.47;5111459;27;20221;-88
2022/05/19 00:16:45;;;;;;;6.63;3.80;;;;;;;8.10;100.00;100283.72;5111315;27;20200;-82
2022/05/19 00:19:12;;;;;;;5.47;3.93;;;;;;;8.04;100.00;100279.72;5111506;28;20507;-81
2022/05/19 00:21:41;;;;;;;8.17;3.77;;;;;;;8.06;100.00;100279.69;5111096;28;20583;-82
2022/05/19 00:24:09;;;;;;;5.43;3.90;;;;;;;8.00;100.00;100288.41;5111398;28;20622;-89
2022/05/19 00:26:36;;;;;;;5.63;3.57;;;;;;;8.03;100.00;100282.31;5111561;28;20205;-89
2022/05/19 00:29:03;;;;;;;6.80;3.70;;;;;;;8.02;100.00;100281.50;5111325;28;20217;-88
2022/05/19 00:31:32;;;;;;;5.63;3.50;;;;;;;7.98;100.00;100279.16;5110999;28;20208;-82
2022/05/19 00:33:59;;;;;;;5.03;3.10;;;;;;;7.96;100.00;100286.03;5111535;28;20221;-82
2022/05/19 00:36:26;;;;;;;6.43;3.63;;;;;;;7.93;100.00;100280.16;5110903;28;20208;-88
2022/05/19 00:38:55;;;;;;;8.77;3.40;;;;;;;7.95;100.00;100280.13;5111030;28;20220;-82
2022/05/19 00:41:22;;;;;;;5.20;3.53;;;;;;;7.97;100.00;100287.69;5110392;28;20219;-89
2022/05/19 00:43:58;;;;;;;6.23;3.43;;;;;;;7.90;100.00;100287.13;5110720;28;20228;-82
2022/05/19 00:46:31;;;;;;;7.83;4.10;;;;;;;7.86;100.00;100275.41;5111098;28;20200;-82
2022/05/19 00:49:03;;;;;;;6.17;3.57;;;;;;;7.83;100.00;100280.66;5110786;28;20269;-89
2022/05/19 00:51:37;;;;;;;7.20;3.80;;;;;;;7.79;100.00;100285.00;5110621;28;20590;-89
2022/05/19 00:54:09;;;;;;;6.40;3.87;;;;;;;7.78;100.00;100283.38;5110827;28;20744;-89
2022/05/19 00:56:44;;;;;;;5.50;3.53;;;;;;;7.75;100.00;100278.41;5110867;28;20200;-82
2022/05/19 00:59:15;;;;;;;6.17;3.77;;;;;;;7.75;100.00;100280.13;5110822;28;20221;-89
2022/05/19 01:01:45;;;;;;;4.93;3.23;;;;;;;7.73;100.00;100280.19;5110717;28;20252;-81
2022/05/19 01:04:15;;;;;;;5.63;3.60;;;;;;;7.70;100.00;100286.22;5110986;28;20221;-89
2022/05/19 01:06:44;;;;;;;7.73;3.70;;;;;;;7.66;100.00;100278.78;5110639;28;20552;-89
2022/05/19 01:09:15;;;;;;;6.77;4.10;;;;;;;7.64;100.00;100275.47;5110647;28;20616;-82
2022/05/19 01:11:43;;;;;;;6.40;3.70;;;;;;;7.58;100.00;100276.53;5110338;28;20248;-89
2022/05/19 01:14:12;;;;;;;5.80;3.97;;;;;;;7.58;100.00;100285.91;5110673;28;20508;-89
2022/05/19 01:16:39;;;;;;;5.27;3.37;;;;;;;7.62;100.00;100289.97;5110165;28;20201;-81
2022/05/19 01:19:17;;;;;;;6.10;3.40;;;;;;;7.66;100.00;100287.25;5110865;28;20229;-86
2022/05/19 01:21:44;;;;;;;5.40;3.87;;;;;;;7.69;100.00;100288.84;5110682;28;20563;-81
2022/05/19 01:24:19;;;;;;;5.73;3.97;;;;;;;7.64;100.00;100288.19;5110833;28;20235;-82
2022/05/19 01:26:50;;;;;;;5.27;3.77;;;;;;;7.57;100.00;100284.25;5110747;28;20200;-82
2022/05/19 01:29:35;;;;;;;5.17;3.80;;;;;;;7.49;100.00;100293.00;5110786;28;20722;-82
2022/05/19 01:32:03;;;;;;;6.87;3.60;;;;;;;7.48;100.00;100288.81;5110065;28;20200;-90
2022/05/19 01:34:32;;;;;;;5.77;3.70;;;;;;;7.52;100.00;100286.97;5110561;28;20578;-90
2022/05/19 01:37:00;;;;;;;5.43;3.93;;;;;;;7.53;100.00;100287.81;5110280;28;20549;-89
2022/05/19 01:39:29;;;;;;;7.37;4.00;;;;;;;7.55;100.00;100286.03;5110193;28;20192;-89
2022/05/19 01:42:19;;;;;;;6.07;3.80;;;;;;;7.56;100.00;100292.75;5110430;28;20675;-90
2022/05/19 01:44:55;;;;;;;5.27;3.80;;;;;;;7.51;100.00;100294.69;5110599;28;20189;-85
2022/05/19 01:47:29;;;;;;;6.20;3.50;;;;;;;7.47;100.00;100297.31;5110660;28;20220;-90
2022/05/19 01:50:02;;;;;;;4.90;3.13;;;;;;;7.40;100.00;100290.84;5110415;28;20224;-90
2022/05/19 01:52:35;;;;;;;6.50;3.30;;;;;;;7.39;100.00;100301.91;5114393;28;20228;-90
2022/05/19 01:55:08;;;;;;;5.60;3.63;;;;;;;7.36;100.00;100302.03;5114162;28;20208;-81
2022/05/19 01:57:40;;;;;;;8.73;3.60;;;;;;;7.40;100.00;100303.56;5114781;28;20242;-90
2022/05/19 02:00:12;;;;;;;6.13;3.43;;;;;;;7.42;100.00;100306.88;5114420;28;20204;-82
2022/05/19 02:02:44;;;;;;;5.03;3.50;;;;;;;7.43;100.00;100305.97;5114311;28;20221;-82
2022/05/19 02:05:23;;;;;;;6.33;3.57;;;;;;;7.37;100.00;100303.69;5114241;28;20197;-91
2022/05/19 02:07:55;;;;;;;6.80;3.20;;;;;;;7.32;100.00;100305.56;5114561;28;20227;-91
2022/05/19 02:10:26;;;;;;;5.77;2.90;;;;;;;7.32;100.00;100305.56;5114133;28;20914;-91
2022/05/19 02:12:56;;;;;;;6.43;3.10;;;;;;;7.38;100.00;100299.41;5114132;27;20217;-89
2022/05/19 02:15:27;;;;;;;6.47;3.30;;;;;;;7.36;100.00;100313.91;5114173;28;20208;-82
2022/05/19 02:17:55;;;;;;;5.03;3.50;;;;;;;7.36;100.00;100309.69;5113841;28;20217;-89
2022/05/19 02:20:26;;;;;;;5.33;3.10;;;;;;;7.38;100.00;100312.97;5114557;28;20691;-81
2022/05/19 02:22:52;;;;;;;9.00;3.63;;;;;;;7.48;100.00;100316.81;5114094;28;20302;-81
2022/05/19 02:25:23;;;;;;;5.57;3.63;;;;;;;7.54;100.00;100309.84;5113910;27;20197;-81
2022/05/19 02:27:57;;;;;;;4.87;3.67;;;;;;;7.56;100.00;100323.31;5113982;28;20213;-81
2022/05/19 02:30:26;;;;;;;7.23;3.47;;;;;;;7.59;100.00;100320.63;5113759;28;20232;-81
2022/05/19 02:32:53;;;;;;;8.47;3.50;;;;;;;7.60;100.00;100320.59;5113992;28;20246;-91
2022/05/19 02:35:21;;;;;;;5.97;3.50;;;;;;;7.60;100.00;100319.75;5113607;28;20198;-82
2022/05/19 02:37:48;;;;;;;5.80;3.03;;;;;;;7.58;100.00;100321.53;5113955;28;20860;-82
2022/05/19 02:40:17;;;;;;;4.50;3.10;;;;;;;7.54;100.00;100325.09;5113507;28;20201;-81
2022/05/19 02:42:45;;;;;;;4.60;3.10;;;;;;;7.53;100.00;100318.34;5113483;28;20270;-82
2022/05/19 02:45:14;;;;;;;4.13;3.03;;;;;;;7.57;100.00;100319.88;5113492;28;20209;-81
2022/05/19 02:47:41;;;;;;;3.70;2.87;;;;;;;7.53;100.00;100328.53;5113393;28;20662;-90
2022/05/19 02:50:10;;;;;;;7.17;3.17;;;;;;;7.54;100.00;100322.56;5113621;28;20229;-81
2022/05/19 02:52:37;;;;;;;5.93;3.10;;;;;;;7.46;100.00;100321.13;5113729;28;20476;-81
2022/05/19 02:55:05;;;;;;;5.47;3.20;;;;;;;7.45;100.00;100327.13;5113322;28;20193;-82
2022/05/19 02:57:32;;;;;;;4.33;2.83;;;;;;;7.34;100.00;100324.16;5113342;28;20711;-81
2022/05/19 03:00:00;;;;;;;7.57;3.20;;;;;;;7.33;100.00;100332.69;5113544;28;20296;-81
2022/05/19 03:02:28;;;;;;;4.17;2.80;;;;;;;7.28;100.00;100324.41;5112766;28;20722;-85
2022/05/19 03:04:55;;;;;;;4.43;3.10;;;;;;;7.26;100.00;100328.72;5112726;28;20197;-91
2022/05/19 03:07:22;;;;;;;4.93;3.20;;;;;;;7.26;100.00;100327.00;5113159;28;20225;-90
2022/05/19 03:09:49;;;;;;;5.33;3.23;;;;;;;7.26;100.00;100332.06;5113200;28;20296;-90
2022/05/19 03:12:16;;;;;;;7.00;3.10;;;;;;;7.26;100.00;100326.16;5112775;28;20244;-81
2022/05/19 03:14:43;;;;;;;3.87;2.97;;;;;;;7.25;100.00;100329.59;5113150;28;20204;-91
2022/05/19 03:17:11;;;;;;;5.73;3.10;;;;;;;7.22;100.00;100329.72;5113084;28;20213;-82
2022/05/19 03:19:39;;;;;;;4.67;3.07;;;;;;;7.28;100.00;100331.22;5112550;28;20212;-90
2022/05/19 03:22:07;;;;;;;6.40;3.13;;;;;;;7.29;100.00;100335.41;5112460;28;20774;-91
2022/05/19 03:24:34;;;;;;;4.07;3.00;;;;;;;7.34;100.00;100338.59;5113166;28;20638;-90
2022/05/19 03:27:01;;;;;;;6.33;3.27;;;;;;;7.37;100.00;100336.75;5112623;28;20208;-82
2022/05/19 03:29:28;;;;;;;4.50;3.00;;;;;;;7.41;100.00;100340.84;5112593;28;20189;-82
2022/05/19 03:31:55;;;;;;;9.13;3.10;;;;;;;7.46;100.00;100341.50;5112372;28;20235;-91
2022/05/19 03:34:22;;;;;;;5.57;3.30;;;;;;;7.41;100.00;100345.91;5112580;28;20216;-91
2022/05/19 03:36:50;;;;;;;7.23;3.13;;;;;;;7.38;100.00;100340.94;5112739;28;20664;-90
2022/05/19 03:39:18;;;;;;;3.80;2.93;;;;;;;7.42;100.00;100342.50;5112624;28;20225;-90
2022/05/19 03:41:45;;;;;;;7.97;3.60;;;;;;;7.47;100.00;100343.13;5112588;28;20315;-82
2022/05/19 03:44:12;;;;;;;3.50;2.87;;;;;;;7.51;100.00;100348.13;5113083;28;20618;-82
2022/05/19 03:46:39;;;;;;;4.40;3.00;;;;;;;7.54;100.00;100346.28;5112405;28;20242;-81
2022/05/19 03:49:06;;;;;;;4.80;2.90;;;;;;;7.60;100.00;100350.31;5112386;28;20220;-82
2022/05/19 03:51:34;;;;;;;8.70;3.23;;;;;;;7.64;100.00;100356.91;5112187;28;20229;-81
2022/05/19 03:54:03;;;;;;;4.40;3.10;;;;;;;7.67;100.00;100351.69;5112514;28;20292;-91
2022/05/19 03:56:29;;;;;;;5.33;3.10;;;;;;;7.73;100.00;100356.53;5112432;28;20197;-92
2022/05/19 03:58:56;;;;;;;4.30;3.27;;;;;;;7.78;100.00;100359.75;5112327;28;20231;-91
2022/05/19 04:01:23;;;;;;;8.53;3.60;;;;;;;7.81;100.00;100357.06;5112193;28;20215;-88
2022/05/19 04:03:50;;;;;;;5.03;3.17;;;;;;;7.86;100.00;100362.00;5111808;28;20225;-85
2022/05/19 04:06:18;;;;;;;5.27;3.10;;;;;;;7.89;100.00;100362.69;5111888;28;20201;-82
2022/05/19 04:08:45;;;;;;;5.33;3.20;;;;;;;7.97;100.00;100359.00;5112144;28;20248;-82
2022/05/19 04:11:14;;;;;;;4.33;3.20;;;;;;;8.01;100.00;100355.44;5111422;28;20257;-82
2022/05/19 04:13:41;;;;;;;6.10;2.83;;;;;;;8.13;100.00;100362.56;5110793;28;20221;-84
2022/05/19 04:16:08;;;;;;;6.70;3.00;;;;;;;8.23;100.00;100365.53;5110708;28;20703;-82
2022/05/19 04:18:35;;;;;;;6.53;3.17;;;;;;;8.31;100.00;100369.44;5111252;28;20650;-81
2022/05/19 04:21:02;;;;;;;5.93;2.90;;;;;;;8.42;100.00;100360.53;5111262;28;20208;-81
2022/05/19 04:23:29;;;;;;;5.13;3.20;;;;;;;8.55;100.00;100361.66;5111423;28;20217;-82
2022/05/19 04:25:56;;;;;;;8.07;3.00;;;;;;;8.68;100.00;100367.88;5111217;28;20258;-83
2022/05/19 04:28:25;;;;;;;4.77;3.20;;;;;;;8.82;100.00;100375.75;5111125;28;20217;-81
2022/05/19 04:30:52;;;;;;;7.33;3.50;;;;;;;9.01;100.00;100365.53;5110897;28;20240;-81
2022/05/19 04:33:19;;;;;;;4.47;3.20;;;;;;;9.16;100.00;100369.16;5110852;28;20225;-82
2022/05/19 04:35:46;;;;;;;5.17;3.03;;;;;;;9.32;100.00;100376.91;5111057;28;20676;-82
2022/05/19 04:38:15;;;;;;;3.87;3.27;;;;;;;9.46;100.00;100371.19;5110911;28;20225;-82
2022/05/19 04:40:47;;;;;;;7.07;3.43;;;;;;;9.68;100.00;100376.91;5110967;28;20193;-81
2022/05/19 04:43:19;;;;;;;4.33;3.10;;;;;;;9.95;100.00;100379.03;5110840;28;20217;-81
2022/05/19 04:45:48;;;;;;;8.87;3.30;;;;;;;10.11;100.00;100372.25;5110788;28;20205;-81
2022/05/19 04:48:15;;;;;;;5.43;3.13;;;;;;;10.29;100.00;100372.28;5110945;28;20275;-81
2022/05/19 04:50:41;;;;;;;5.00;3.10;;;;;;;10.56;100.00;100373.44;5110702;28;20208;-81
2022/05/19 04:53:08;;;;;;;4.57;2.90;;;;;;;10.79;100.00;100376.50;5110943;28;20217;-82
2022/05/19 04:55:36;;;;;;;5.43;2.80;;;;;;;11.04;100.00;100382.00;5110717;28;20266;-83
2022/05/19 04:58:03;;;;;;;3.50;2.60;;;;;;;11.20;100.00;100384.56;5110382;28;20227;-81
2022/05/19 05:00:30;;;;;;;5.80;2.77;;;;;;;11.40;100.00;100382.63;5110632;28;20634;-82
2022/05/19 05:02:58;;;;;;;3.57;2.67;;;;;;;11.72;100.00;100385.97;5110310;28;20228;-82
2022/05/19 05:05:25;;;;;;;4.80;2.57;;;;;;;11.98;99.13;100384.53;5110723;28;20224;-81
2022/05/19 05:07:52;;;;;;;3.37;2.57;;;;;;;12.27;96.83;100390.53;5110585;28;20229;-82
2022/05/19 05:10:19;;;;;;;4.30;2.43;;;;;;;12.44;95.01;100389.56;5110123;28;20193;-81
2022/05/19 05:12:46;;;;;;;4.73;2.57;;;;;;;12.50;93.01;100396.06;5110507;28;20236;-82
2022/05/19 05:15:13;;;;;;;2.90;2.50;;;;;;;12.65;91.80;100405.41;5110309;28;20228;-81
2022/05/19 05:17:40;;;;;;;3.20;2.50;;;;;;;12.80;92.48;100404.50;5110458;28;20228;-80
2022/05/19 05:20:12;;;;;;;5.13;2.50;;;;;;;12.89;90.87;100408.25;5110253;28;20215;-81
2022/05/19 05:22:39;;;;;;;3.03;2.50;;;;;;;12.92;90.91;100408.06;5109973;28;20217;-82
2022/05/19 05:25:09;;;;;;;3.20;2.50;;;;;;;13.22;92.01;100410.50;5110204;28;20197;-82
2022/05/19 05:27:35;;;;;;;3.10;2.50;;;;;;;13.29;89.79;100422.06;5110206;28;20220;-81
2022/05/19 05:30:04;;;;;;;4.50;2.80;;;;;;;13.47;89.70;100419.28;5109823;28;20196;-81
2022/05/19 05:32:30;;;;;;;4.80;2.70;;;;;;;13.75;90.07;100419.16;5109824;28;20239;-81
2022/05/19 05:34:57;;;;;;;4.03;2.70;;;;;;;13.85;87.53;100418.59;5109886;28;20254;-82
2022/05/19 05:37:25;;;;;;;3.93;2.70;;;;;;;14.13;88.06;100417.59;5110072;28;20222;-83
2022/05/19 05:39:52;;;;;;;3.80;2.87;;;;;;;14.18;88.24;100420.69;5109980;28;20228;-81
2022/05/19 05:42:19;;;;;;;5.37;2.70;;;;;;;14.27;88.33;100420.91;5109812;28;20222;-83
2022/05/19 05:44:46;;;;;;;6.37;3.10;;;;;;;14.38;88.29;100421.94;5110007;28;20291;-83
2022/05/19 05:47:13;;;;;;;5.23;3.50;;;;;;;14.42;86.03;100418.22;5110405;28;20223;-81
2022/05/19 05:49:40;;;;;;;4.27;3.53;;;;;;;14.71;86.85;100429.97;5109737;28;20201;-82
2022/05/19 05:52:07;;;;;;;4.73;3.60;;;;;;;14.83;85.77;100430.09;5110184;28;20651;-82
2022/05/19 05:54:35;;;;;;;4.70;3.53;;;;;;;14.84;84.42;100434.31;5109759;28;20204;-83
2022/05/19 05:57:03;;;;;;;6.27;3.57;;;;;;;14.85;85.53;100430.81;5109929;28;20203;-81
2022/05/19 05:59:30;;;;;;;4.67;3.63;;;;;;;14.86;84.95;100424.72;5109769;28;20671;-82
2022/05/19 06:01:57;;;;;;;5.00;3.60;;;;;;;14.85;84.60;100428.22;5109874;28;20199;-82
2022/05/19 06:04:24;;;;;;;5.73;4.10;;;;;;;14.61;85.18;100423.81;5109891;28;20213;-81
2022/05/19 06:06:51;;;;;;;6.27;4.70;;;;;;;14.63;85.71;100428.84;5109857;28;20263;-82
2022/05/19 06:09:18;;;;;;;6.47;4.50;;;;;;;14.71;87.67;100429.16;5109676;28;20308;-81
2022/05/19 06:11:46;;;;;;;5.97;4.23;;;;;;;15.04;86.10;100436.34;5109831;28;20324;-82
2022/05/19 06:14:13;;;;;;;7.27;4.33;;;;;;;15.18;84.65;100435.38;5109793;28;20217;-81
2022/05/19 06:16:40;;;;;;;7.17;4.37;;;;;;;15.42;85.37;100439.72;5109657;28;20201;-82
2022/05/19 06:19:06;;;;;;;6.10;4.60;;;;;;;15.27;83.25;100441.63;5109545;28;20213;-81
2022/05/19 06:21:36;;;;;;;5.37;4.00;;;;;;;15.09;84.81;100441.16;5109357;28;20661;-81
2022/05/19 06:24:08;;;;;;;4.77;3.30;;;;;;;15.28;84.16;100438.13;5109764;28;20707;-81
2022/05/19 06:26:35;;;;;;;4.73;3.70;;;;;;;15.65;82.33;100450.97;5109735;28;20233;-82
2022/05/19 06:29:03;;;;;;;4.57;3.50;;;;;;;15.90;82.21;100445.72;5109329;28;20217;-81
2022/05/19 06:31:31;;;;;;;4.17;3.10;;;;;;;16.12;81.86;100444.19;5109373;28;20225;-82
2022/05/19 06:33:59;;;;;;;4.10;3.20;;;;;;;16.30;80.64;100453.13;5109436;28;20231;-82
2022/05/19 06:36:26;;;;;;;4.00;3.17;;;;;;;16.48;79.73;100456.91;5109635;28;20197;-81
2022/05/19 06:38:53;;;;;;;4.27;3.40;;;;;;;16.75;78.24;100448.00;5111724;28;20224;-81
2022/05/19 06:44:06;;;;;;;4.23;3.23;;;;;;;16.77;78.16;100447.94;5113111;28;20710;-81
2022/05/19 06:46:33;;;;;;;3.73;3.20;;;;;;;17.22;78.34;100458.22;5113099;28;20203;-81
2022/05/19 06:49:02;;;;;;;4.57;3.27;;;;;;;17.31;76.87;100450.59;5113013;28;20209;-82
2022/05/19 06:51:29;;;;;;;4.60;3.43;;;;;;;17.71;75.18;100452.59;5113054;27;20232;-81
2022/05/19 06:53:56;;;;;;;4.67;3.30;;;;;;;17.97;74.79;100454.88;5113083;28;20226;-81
2022/05/19 06:56:23;;;;;;;3.30;3.00;;;;;;;18.22;73.03;100451.09;5112798;28;20255;-81
2022/05/19 06:58:50;;;;;;;4.00;3.40;;;;;;;18.64;72.01;100457.03;5113047;28;20618;-82
2022/05/19 07:01:18;;;;;;;3.97;3.20;;;;;;;18.84;71.79;100452.00;5113023;28;20206;-81
2022/05/19 07:03:45;;;;;;;5.47;3.17;;;;;;;19.15;70.30;100455.38;5112899;28;20228;-82
2022/05/19 07:06:12;;;;;;;5.23;3.20;;;;;;;19.58;69.87;100455.03;5112732;28;20715;-82
2022/05/19 07:08:40;;;;;;;3.70;3.00;;;;;;;19.87;67.01;100456.84;5112727;28;20595;-81
2022/05/19 07:11:24;;;;;;;3.40;2.87;;;;;;;20.11;67.29;100453.81;5112696;28;20199;-81
2022/05/19 07:13:52;;;;;;;3.43;2.70;;;;;;;20.43;63.61;100453.47;5112560;28;20454;-82
2022/05/19 07:16:21;;;;;;;3.23;2.73;;;;;;;20.49;64.07;100454.69;5112559;28;20288;-81
2022/05/19 07:18:48;;;;;;;5.20;3.20;;;;;;;20.27;62.71;100450.63;5112584;27;20222;-83
2022/05/19 08:21:18;;;;;;;3.83;2.55;;;;;;;23.47;49.59;100466.25;5067223;27;20584;-82
2022/05/19 08:23:47;;;;;;;3.75;2.92;;;;;;;23.31;48.69;100460.19;5067132;28;20207;-82
2022/05/19 08:26:15;;;;;;;3.80;2.80;;;;;;;23.42;48.39;100460.69;5066826;28;20234;-81
2022/05/19 08:28:43;;;;;;;4.70;2.83;;;;;;;23.69;49.77;100456.97;5067165;28;20256;-81
2022/05/19 08:31:16;;;;;;;3.55;2.72;;;;;;;23.90;50.67;100461.72;5066359;28;20300;-81
2022/05/19 08:33:45;;;;;;;4.15;2.85;;;;;;;23.84;48.01;100459.78;5066939;28;20234;-81
2022/05/19 08:36:12;;;;;;;4.38;3.00;;;;;;;23.99;51.55;100457.31;5066489;28;20227;-80
2022/05/19 08:38:42;;;;;;;4.03;3.00;;;;;;;24.27;53.13;100451.75;5066603;28;20198;-80
2022/05/19 08:41:14;;;;;;;3.65;2.80;;;;;;;24.05;47.17;100464.50;5066733;28;20728;-81
2022/05/19 08:43:46;;;;;;;3.08;2.78;;;;;;;24.32;47.75;100457.28;5066496;28;20461;-81
2022/05/19 08:46:20;;;;;;;3.63;2.80;;;;;;;24.62;50.25;100461.81;5066611;28;20215;-81
2022/05/19 08:48:50;;;;;;;4.00;2.72;;;;;;;24.66;47.31;100461.47;5066561;28;20203;-81
2022/05/19 08:51:17;;;;;;;3.35;2.70;;;;;;;24.73;51.31;100451.97;5066147;28;20227;-80
2022/05/19 08:53:46;;;;;;;6.15;2.60;;;;;;;24.75;46.26;100457.81;5066504;28;20238;-81
2022/05/19 08:56:20;;;;;;;2.58;2.38;;;;;;;24.88;43.68;100450.25;5066161;28;20230;-81
2022/05/19 08:59:04;;;;;;;3.08;2.38;;;;;;;25.12;46.05;100453.75;5066457;28;20225;-82
2022/05/19 09:01:38;;;;;;;2.97;2.10;;;;;;;25.30;43.60;100454.31;5065959;28;20198;-81
2022/05/19 09:04:19;;;;;;;3.05;2.00;;;;;;;24.96;43.28;100449.41;5066043;28;20210;-81
2022/05/19 09:09:59;;;;;;;3.47;1.70;;;;;;;24.98;42.40;100450.06;5065864;28;20226;-81
2022/05/19 09:12:28;;;;;;;2.45;1.75;;;;;;;24.85;46.65;100450.59;5065989;28;20657;-86
2022/05/19 09:14:55;;;;;;;1.60;1.50;;;;;;;25.33;46.44;100443.50;5065998;28;20230;-82
2022/05/19 09:17:26;;;;;;;3.78;1.60;;;;;;;24.92;41.95;100433.22;5065851;28;20222;-84
2022/05/19 09:19:56;;;;;;;2.80;1.63;;;;;;;24.85;44.02;100433.09;5065502;28;20264;-82
2022/05/19 09:22:24;;;;;;;1.70;1.50;;;;;;;25.00;39.65;100427.97;5070702;28;20203;-81
2022/05/19 09:24:54;;;;;;;1.65;1.50;;;;;;;25.35;41.12;100436.28;5076829;28;20234;-81
2022/05/19 09:27:23;;;;;;;3.97;1.83;;;;;;;24.94;39.22;100428.66;5070425;28;20297;-80
2022/05/19 09:29:52;;;;;;;2.75;1.58;;;;;;;25.31;42.26;100432.41;5073007;28;20329;-83
2022/05/19 09:32:25;;;;;;;1.52;1.40;;;;;;;25.29;36.87;100431.75;5054108;28;20673;-81
2022/05/19 09:34:55;;;;;;;3.55;1.48;;;;;;;25.36;38.68;100424.81;5052513;28;20325;-82
2022/05/19 09:37:35;;;;;;;2.33;1.70;;;;;;;25.43;39.34;100422.34;5052650;28;20227;-82
2022/05/19 09:40:18;;;;;;;5.53;1.67;;;;;;;25.45;38.52;100415.94;5051924;28;20309;-81
2022/05/19 09:42:54;;;;;;;2.03;1.60;;;;;;;25.77;39.23;100416.63;5052182;28;20206;-83
2022/05/19 09:45:22;;;;;;;2.75;1.40;;;;;;;25.91;39.60;100421.13;5052416;28;20219;-83
2022/05/19 09:47:52;;;;;;;1.65;1.50;;;;;;;25.75;36.48;100422.06;5052189;28;20203;-83
2022/05/19 09:50:23;;;;;;;4.10;1.55;;;;;;;25.39;36.03;100419.22;5052289;28;20243;-81
2022/05/19 09:52:50;;;;;;;1.85;1.30;;;;;;;25.39;38.66;100418.41;5052098;28;20692;-82
2022/05/19 09:55:24;;;;;;;3.53;1.73;;;;;;;25.81;36.65;100404.84;5051858;28;20230;-82
2022/05/19 09:57:57;;;;;;;3.78;1.67;;;;;;;25.92;40.58;100401.81;5051893;28;20290;-82
2022/05/19 10:00:36;;;;;;;2.20;1.50;;;;;;;25.95;36.25;100403.25;5051896;28;20247;-83
2022/05/19 10:03:05;;;;;;;4.97;1.50;;;;;;;25.69;34.73;100390.53;5051772;28;20199;-81
2022/05/19 10:05:46;;;;;;;3.38;1.67;;;;;;;25.39;36.81;100390.44;5051847;28;20220;-82
2022/05/19 10:08:16;;;;;;;2.92;1.70;;;;;;;25.31;36.92;100387.91;5051214;28;20732;-82
2022/05/19 10:10:49;;;;;;;2.25;1.65;;;;;;;25.64;36.58;100388.44;5051648;28;20242;-81
2022/05/19 10:13:17;;;;;;;3.72;1.73;;;;;;;25.73;36.01;100382.13;5051675;28;20203;-83
2022/05/19 10:16:01;;;;;;;2.75;2.00;;;;;;;25.98;36.83;100379.31;5051706;28;20251;-82
2022/05/19 10:18:39;;;;;;;2.65;1.70;;;;;;;25.75;33.64;100384.59;5051779;28;20678;-82
2022/05/19 10:21:16;;;;;;;3.15;1.80;;;;;;;24.99;35.66;100379.25;5051034;28;20227;-83
2022/05/19 10:24:05;;;;;;;3.10;1.80;;;;;;;25.18;36.44;100377.19;5051543;28;20257;-82
2022/05/19 10:26:46;;;;;;;2.00;1.77;;;;;;;25.21;40.15;100371.59;5051439;28;20351;-82
2022/05/19 10:32:52;;;;;;;2.38;1.75;;;;;;;25.50;37.99;100371.69;5009056;28;20276;-82
2022/05/19 10:35:27;;;;;;;1.60;1.30;;;;;;;25.76;36.68;100362.63;5051133;28;20709;-82
2022/05/19 10:38:06;;;;;;;5.45;1.58;;;;;;;25.60;35.51;100360.97;5051350;28;20276;-82
2022/05/19 10:41:01;;;;;;;2.92;1.35;;;;;;;25.53;36.54;100360.84;5051014;28;20215;-82
2022/05/19 10:43:42;;;;;;;2.03;1.30;;;;;;;25.72;34.90;100359.56;5050068;28;20203;-83
2022/05/19 10:46:14;;;;;;;1.92;1.40;;;;;;;25.92;30.88;100359.88;5051023;28;20230;-83
2022/05/19 10:49:00;;;;;;;3.30;1.55;;;;;;;25.58;33.75;100357.72;5050869;28;20203;-82
2022/05/19 10:51:38;;;;;;;3.25;1.40;;;;;;;25.88;33.65;100352.56;5050902;28;20333;-84
2022/05/19 10:54:18;;;;;;;2.75;1.40;;;;;;;25.77;35.37;100356.38;5050774;28;20195;-83
2022/05/19 10:57:14;;;;;;;1.98;1.55;;;;;;;25.74;33.94;100354.13;5050984;28;20286;-82
2022/05/19 11:00:05;;;;;;;1.50;1.40;;;;;;;25.77;35.21;100340.66;5035074;28;20219;-82
2022/05/19 11:03:15;;;;;;;2.40;1.30;;;;;;;25.50;34.69;100335.03;5051094;28;20207;-83
2022/05/19 11:05:49;;;;;;;3.45;1.50;;;;;;;25.54;36.57;100340.75;5050711;28;20239;-82
2022/05/19 11:08:30;;;;;;;1.50;1.40;;;;;;;25.39;34.13;100343.31;5050647;28;20199;-82
2022/05/19 11:11:05;;;;;;;1.70;1.40;;;;;;;25.36;33.80;100338.41;5050338;28;20235;-82
2022/05/19 11:13:47;;;;;;;1.98;1.30;;;;;;;25.51;35.52;100335.84;5050686;28;20200;-82
2022/05/19 11:16:30;;;;;;;1.30;1.20;;;;;;;25.72;36.12;100316.84;5050186;28;20238;-82
2022/05/19 11:19:04;;;;;;;1.80;1.35;;;;;;;25.86;36.10;100323.94;5049990;28;20692;-82
2022/05/19 11:21:36;;;;;;;2.10;1.50;;;;;;;25.51;33.84;100333.22;5050181;28;20199;-81
2022/05/19 11:24:10;;;;;;;2.20;1.50;;;;;;;25.80;34.98;100321.97;5050312;28;20208;-81
2022/05/19 11:26:42;;;;;;;1.77;1.50;;;;;;;25.84;36.69;100317.22;5050239;28;20202;-82
2022/05/19 11:29:18;;;;;;;1.42;1.30;;;;;;;25.75;34.26;100316.47;5050134;28;20298;-81
2022/05/19 11:31:51;;;;;;;1.50;1.40;;;;;;;25.92;35.15;100317.97;5050065;28;20302;-81
2022/05/19 11:34:24;;;;;;;2.63;1.50;;;;;;;25.76;35.33;100318.09;5050142;28;20784;-82
2022/05/19 11:36:59;;;;;;;2.13;1.40;;;;;;;25.54;33.86;100319.78;5050250;28;20234;-83
2022/05/19 11:39:33;;;;;;;2.97;1.65;;;;;;;25.40;33.05;100325.81;5050352;28;20222;-82
2022/05/19 11:42:18;;;;;;;2.40;1.50;;;;;;;25.29;36.02;100321.81;5049863;28;20209;-81
2022/05/19 11:44:46;;;;;;;1.55;1.45;;;;;;;25.45;35.80;100319.06;5049954;28;20235;-81
2022/05/19 11:55:12;;;;;;;1.60;1.50;;;;;;;25.18;34.22;100323.03;5049748;28;20199;-81
2022/05/19 11:55:49;;;;;;;2.35;1.48;;;;;;;25.33;37.39;100314.41;5049540;28;20222;-82
2022/05/19 11:58:20;;;;;;;3.10;1.73;;;;;;;25.37;36.58;100310.47;5049875;28;20655;-83
2022/05/19 12:00:56;;;;;;;1.77;1.48;;;;;;;25.44;37.46;100309.56;5049820;28;20723;-81
2022/05/19 12:03:30;;;;;;;2.15;1.40;;;;;;;25.41;37.60;100309.91;5049687;28;20261;-81
2022/05/19 12:06:00;;;;;;;3.65;1.50;;;;;;;25.53;35.71;100300.63;5050083;28;20305;-80
2022/05/19 12:08:32;;;;;;;1.75;1.40;;;;;;;25.36;35.14;100286.06;5049576;28;20207;-83
2022/05/19 12:11:11;;;;;;;3.58;1.80;;;;;;;25.24;34.14;100292.72;5049375;28;20246;-80
2022/05/19 12:13:39;;;;;;;3.63;1.65;;;;;;;25.17;33.66;100290.00;5049526;28;20191;-80
2022/05/19 12:16:10;;;;;;;2.65;1.70;;;;;;;25.02;35.75;100282.06;5049268;28;20227;-80
2022/05/19 12:18:44;;;;;;;1.80;1.50;;;;;;;25.01;32.85;100277.81;5049437;28;20199;-81
2022/05/19 12:21:32;;;;;;;3.00;1.42;;;;;;;24.98;36.75;100283.41;5049134;28;20307;-80
2022/05/19 12:24:06;;;;;;;1.63;1.30;;;;;;;25.13;36.04;100280.00;5049332;28;20253;-81
2022/05/19 12:26:39;;;;;;;1.95;1.60;;;;;;;25.11;34.83;100274.16;5049322;28;20195;-83
2022/05/19 12:29:24;;;;;;;3.15;1.60;;;;;;;25.14;34.33;100276.47;5049393;28;20207;-83
2022/05/19 12:32:07;;;;;;;2.10;1.50;;;;;;;24.92;32.40;100272.81;5049351;28;20313;-83
2022/05/19 12:34:43;;;;;;;1.75;1.50;;;;;;;25.11;34.03;100274.16;5049523;28;20227;-80
2022/05/19 12:37:34;;;;;;;3.70;1.70;;;;;;;25.26;34.35;100264.56;5049375;28;20211;-83
2022/05/19 12:40:28;;;;;;;1.77;1.40;;;;;;;25.19;34.67;100258.41;5043170;28;20318;-82
2022/05/19 12:43:26;;;;;;;4.07;1.50;;;;;;;25.12;33.99;100252.22;5049315;28;20294;-80
2022/05/19 12:45:55;;;;;;;5.35;1.40;;;;;;;24.89;32.43;100254.88;5049690;28;20298;-82
2022/05/19 12:48:43;;;;;;;1.95;1.55;;;;;;;24.84;32.95;100256.22;5049248;28;20199;-80
2022/05/19 12:51:24;;;;;;;1.98;1.50;;;;;;;24.93;33.43;100259.59;5049062;28;20770;-83
2022/05/19 12:54:08;;;;;;;4.75;1.70;;;;;;;24.98;32.95;100252.00;5049168;28;20195;-80
2022/05/19 12:56:56;;;;;;;5.18;1.58;;;;;;;24.87;34.00;100252.44;5049353;28;20206;-82
2022/05/19 12:59:46;;;;;;;4.03;1.60;;;;;;;24.66;34.51;100247.00;5049410;28;20687;-82